createdAt,value
2022-11-19T00:02:02.676Z,997.02
2022-11-19T00:04:35.520Z,997.04
2022-11-19T00:07:08.767Z,997.05
2022-11-19T00:09:41.684Z,997.09
2022-11-19T00:12:14.663Z,997.09
2022-11-19T00:14:47.667Z,997.08
2022-11-19T00:17:20.618Z,997.06
2022-11-19T00:19:53.704Z,997.05
2022-11-19T00:22:26.659Z,997.05
2022-11-19T00:24:59.710Z,997.06
2022-11-19T00:27:32.667Z,997.06
2022-11-19T00:30:20.020Z,997.06
2022-11-19T00:32:38.633Z,997.06
2022-11-19T00:35:11.621Z,997.07
2022-11-19T00:37:44.673Z,997.07
2022-11-19T00:40:17.705Z,997.07
2022-11-19T00:42:50.348Z,997.06
2022-11-19T00:45:23.737Z,997.03
2022-11-19T00:48:02.612Z,997.01
2022-11-19T00:50:35.505Z,997.01
2022-11-19T00:53:08.682Z,997.01
2022-11-19T00:55:41.689Z,997.01
2022-11-19T00:58:14.753Z,997.01
2022-11-19T01:00:47.796Z,997.01
2022-11-19T01:03:20.749Z,997.02
2022-11-19T01:05:53.777Z,997.02
2022-11-19T01:08:26.733Z,997.02
2022-11-19T01:10:59.739Z,997.02
2022-11-19T01:13:32.744Z,997.02
2022-11-19T01:16:05.760Z,997.02
2022-11-19T01:18:38.725Z,997.03
2022-11-19T01:21:11.805Z,997.06
2022-11-19T01:23:44.791Z,997.06
2022-11-19T01:26:17.800Z,997.07
2022-11-19T01:28:50.779Z,997.09
2022-11-19T01:31:23.830Z,997.11
2022-11-19T01:33:56.661Z,997.14
2022-11-19T01:36:29.802Z,997.16
2022-11-19T01:39:02.757Z,997.16
2022-11-19T01:41:35.823Z,997.17
2022-11-19T01:44:08.858Z,997.16
2022-11-19T01:46:42.836Z,997.15
2022-11-19T01:49:15.783Z,997.14
2022-11-19T01:51:48.652Z,997.16
2022-11-19T01:54:21.873Z,997.17
2022-11-19T01:56:54.798Z,997.17
2022-11-19T01:59:27.869Z,997.16
2022-11-19T02:02:00.748Z,997.16
2022-11-19T02:04:33.875Z,997.17
2022-11-19T02:07:06.973Z,997.18
2022-11-19T02:09:40.906Z,997.18
2022-11-19T02:12:13.751Z,997.18
2022-11-19T02:14:50.498Z,997.16
2022-11-19T02:17:19.791Z,997.16
2022-11-19T02:19:52.831Z,997.16
2022-11-19T02:22:25.777Z,997.14
2022-11-19T02:24:58.936Z,997.13
2022-11-19T02:27:31.896Z,997.13
2022-11-19T02:30:04.815Z,997.12
2022-11-19T02:32:37.898Z,997.13
2022-11-19T02:35:10.805Z,997.14
2022-11-19T02:37:43.905Z,997.15
2022-11-19T02:40:16.973Z,997.15
2022-11-19T02:42:49.807Z,997.17
2022-11-19T02:45:22.829Z,997.17
2022-11-19T02:47:55.929Z,997.19
2022-11-19T02:50:28.870Z,997.20
2022-11-19T02:53:01.890Z,997.20
2022-11-19T02:55:34.988Z,997.19
2022-11-19T02:58:08.856Z,997.19
2022-11-19T03:00:41.669Z,997.21
2022-11-19T03:03:14.889Z,997.21
2022-11-19T03:05:47.903Z,997.21
2022-11-19T03:08:20.751Z,997.21
2022-11-19T03:10:53.945Z,997.23
2022-11-19T03:13:26.908Z,997.23
2022-11-19T03:15:59.952Z,997.25
2022-11-19T03:18:32.961Z,997.26
2022-11-19T03:21:05.960Z,997.26
2022-11-19T03:23:38.883Z,997.30
2022-11-19T03:26:11.891Z,997.32
2022-11-19T03:28:45.007Z,997.32
2022-11-19T03:31:17.936Z,997.34
2022-11-19T03:33:50.887Z,997.34
2022-11-19T03:36:23.924Z,997.37
2022-11-19T03:38:57.005Z,997.39
2022-11-19T03:41:33.867Z,997.40
2022-11-19T03:44:06.990Z,997.40
2022-11-19T03:46:39.976Z,997.40
2022-11-19T03:49:12.914Z,997.39
2022-11-19T03:51:45.945Z,997.42
2022-11-19T03:54:18.920Z,997.44
2022-11-19T03:56:52.024Z,997.46
2022-11-19T03:59:29.405Z,997.48
2022-11-19T04:01:58.098Z,997.51
2022-11-19T04:04:30.966Z,997.54
2022-11-19T04:07:03.999Z,997.57
2022-11-19T04:09:37.042Z,997.60
2022-11-19T04:12:12.974Z,997.64
2022-11-19T04:14:46.039Z,997.67
2022-11-19T04:17:19.072Z,997.69
2022-11-19T04:19:52.059Z,997.72
2022-11-19T04:22:24.949Z,997.73
2022-11-19T04:24:58.086Z,997.77
2022-11-19T04:27:31.072Z,997.80
2022-11-19T04:30:04.090Z,997.82
2022-11-19T04:32:37.016Z,997.83
2022-11-19T04:35:09.692Z,997.84
2022-11-19T04:37:43.026Z,997.84
2022-11-19T04:40:16.084Z,997.87
2022-11-19T04:42:49.221Z,997.90
2022-11-19T04:45:23.076Z,997.90
2022-11-19T04:47:56.008Z,997.93
2022-11-19T04:50:29.116Z,997.95
2022-11-19T04:53:01.981Z,997.97
2022-11-19T04:55:35.113Z,997.98
2022-11-19T04:58:08.120Z,997.98
2022-11-19T05:00:40.900Z,998.01
2022-11-19T05:03:14.029Z,998.02
2022-11-19T05:05:47.029Z,998.02
2022-11-19T05:08:20.110Z,998.03
2022-11-19T05:10:53.038Z,998.03
2022-11-19T05:13:26.081Z,998.03
2022-11-19T05:15:59.143Z,998.02
2022-11-19T05:18:32.035Z,998.01
2022-11-19T05:21:05.166Z,997.99
2022-11-19T05:23:39.152Z,997.96
2022-11-19T05:26:12.064Z,997.95
2022-11-19T05:28:45.130Z,997.92
2022-11-19T05:31:18.045Z,997.90
2022-11-19T05:33:51.152Z,997.91
2022-11-19T05:36:29.695Z,997.93
2022-11-19T05:39:03.057Z,997.95
2022-11-19T05:41:36.102Z,997.97
2022-11-19T05:44:09.091Z,998.00
2022-11-19T05:46:42.092Z,998.02
2022-11-19T05:49:15.110Z,998.04
2022-11-19T05:51:48.257Z,998.05
2022-11-19T05:54:22.229Z,998.06
2022-11-19T05:57:09.109Z,998.06
2022-11-19T05:59:44.080Z,998.07
2022-11-19T06:02:15.145Z,998.08
2022-11-19T06:04:48.166Z,998.08
2022-11-19T06:07:21.109Z,998.08
2022-11-19T06:09:54.105Z,998.08
2022-11-19T06:12:27.239Z,998.10
2022-11-19T06:15:00.268Z,998.13
2022-11-19T06:17:32.955Z,998.13
2022-11-19T06:20:05.985Z,998.15
2022-11-19T06:22:39.254Z,998.15
2022-11-19T06:25:12.189Z,998.16
2022-11-19T06:27:45.223Z,998.17
2022-11-19T06:30:18.180Z,998.18
2022-11-19T06:32:50.947Z,998.20
2022-11-19T06:35:24.204Z,998.19
2022-11-19T06:37:57.179Z,998.21
2022-11-19T06:40:30.259Z,998.23
2022-11-19T06:43:03.027Z,998.24
2022-11-19T06:45:36.307Z,998.25
2022-11-19T06:48:15.136Z,998.27
2022-11-19T06:50:48.222Z,998.29
2022-11-19T06:53:21.233Z,998.32
2022-11-19T06:55:53.900Z,998.34
2022-11-19T06:58:27.089Z,998.35
2022-11-19T07:01:00.336Z,998.36
2022-11-19T07:03:33.269Z,998.38
2022-11-19T07:06:06.214Z,998.40
2022-11-19T07:08:39.287Z,998.42
2022-11-19T07:11:12.197Z,998.43
2022-11-19T07:13:45.293Z,998.45
2022-11-19T07:16:32.226Z,998.48
2022-11-19T07:19:05.319Z,998.50
2022-11-19T07:21:38.244Z,998.51
2022-11-19T07:24:11.233Z,998.53
2022-11-19T07:26:44.304Z,998.56
2022-11-19T07:29:17.566Z,998.59
2022-11-19T07:31:50.280Z,998.61
2022-11-19T07:34:23.232Z,998.62
2022-11-19T07:36:55.967Z,998.65
2022-11-19T07:39:29.024Z,998.67
2022-11-19T07:42:02.046Z,998.71
2022-11-19T07:44:34.965Z,998.73
2022-11-19T07:47:08.412Z,998.75
2022-11-19T07:49:42.120Z,998.79
2022-11-19T07:52:15.004Z,998.81
2022-11-19T07:54:47.990Z,998.84
2022-11-19T07:57:24.604Z,998.87
2022-11-19T07:59:53.988Z,998.90
2022-11-19T08:02:27.057Z,998.93
2022-11-19T08:05:00.022Z,998.96
2022-11-19T08:07:33.135Z,998.98
2022-11-19T08:10:06.288Z,998.99
2022-11-19T08:12:39.407Z,999.00
2022-11-19T08:15:12.314Z,999.03
2022-11-19T08:17:45.056Z,999.05
2022-11-19T08:20:18.294Z,999.08
2022-11-19T08:22:51.047Z,999.10
2022-11-19T08:25:24.015Z,999.12
2022-11-19T08:27:57.206Z,999.15
2022-11-19T08:30:30.157Z,999.18
2022-11-19T08:33:03.068Z,999.19
2022-11-19T08:35:36.052Z,999.18
2022-11-19T08:38:09.336Z,999.19
2022-11-19T08:40:42.044Z,999.19
2022-11-19T08:43:15.332Z,999.20
2022-11-19T08:45:48.426Z,999.22
2022-11-19T08:48:21.533Z,999.23
2022-11-19T08:50:55.210Z,999.25
2022-11-19T08:53:28.243Z,999.29
2022-11-19T08:56:01.481Z,999.32
2022-11-19T08:58:34.092Z,999.36
2022-11-19T09:01:07.482Z,999.40
2022-11-19T09:03:40.336Z,999.44
2022-11-19T09:06:13.232Z,999.46
2022-11-19T09:08:46.201Z,999.49
2022-11-19T09:14:09.113Z,999.54
2022-11-19T09:16:42.235Z,999.55
2022-11-19T09:19:15.434Z,999.59
2022-11-19T09:21:48.280Z,999.62
2022-11-19T09:24:21.622Z,999.67
2022-11-19T09:26:57.170Z,999.71
2022-11-19T09:29:27.426Z,999.75
2022-11-19T09:32:00.281Z,999.80
2022-11-19T09:34:33.550Z,999.83
2022-11-19T09:37:06.147Z,999.87
2022-11-19T09:39:39.296Z,999.91
2022-11-19T09:42:12.156Z,999.95
2022-11-19T09:44:45.470Z,999.98
2022-11-19T09:47:18.468Z,999.99
2022-11-19T09:49:51.323Z,1000.01
2022-11-19T09:52:24.150Z,1000.01
2022-11-19T09:54:57.520Z,1000.01
2022-11-19T09:57:30.161Z,1000.03
2022-11-19T10:00:03.326Z,1000.04
2022-11-19T10:02:36.268Z,1000.04
2022-11-19T10:05:09.219Z,1000.05
2022-11-19T10:07:42.362Z,1000.06
2022-11-19T10:10:15.561Z,1000.07
2022-11-19T10:12:48.287Z,1000.08
2022-11-19T10:15:21.662Z,1000.09
2022-11-19T10:17:54.364Z,1000.11
2022-11-19T10:20:27.392Z,1000.10
2022-11-19T10:23:00.209Z,1000.13
2022-11-19T10:25:33.307Z,1000.15
2022-11-19T10:28:06.622Z,1000.15
2022-11-19T10:30:39.310Z,1000.16
2022-11-19T10:33:18.313Z,1000.16
2022-11-19T10:35:51.653Z,1000.14
2022-11-19T10:38:24.425Z,1000.14
2022-11-19T10:40:57.346Z,1000.15
2022-11-19T10:43:30.407Z,1000.17
2022-11-19T10:46:03.288Z,1000.18
2022-11-19T10:48:36.326Z,1000.19
2022-11-19T10:51:09.276Z,1000.20
2022-11-19T10:53:42.447Z,1000.20
2022-11-19T10:56:15.412Z,1000.21
2022-11-19T10:58:48.367Z,1000.22
2022-11-19T11:01:21.707Z,1000.23
2022-11-19T11:03:54.294Z,1000.24
2022-11-19T11:06:27.641Z,1000.25
2022-11-19T11:09:00.448Z,1000.25
2022-11-19T11:11:33.324Z,1000.26
2022-11-19T11:14:06.285Z,1000.27
2022-11-19T11:16:39.410Z,1000.28
2022-11-19T11:19:12.586Z,1000.30
2022-11-19T11:21:45.426Z,1000.30
2022-11-19T11:24:18.319Z,1000.30
2022-11-19T11:26:51.347Z,1000.28
2022-11-19T11:29:24.447Z,1000.28
2022-11-19T11:31:57.765Z,1000.25
2022-11-19T11:34:31.672Z,1000.23
2022-11-19T11:37:04.641Z,1000.24
2022-11-19T11:39:37.498Z,1000.23
2022-11-19T11:42:14.444Z,1000.22
2022-11-19T11:44:43.579Z,1000.23
2022-11-19T11:47:16.571Z,1000.24
2022-11-19T11:49:49.726Z,1000.23
2022-11-19T11:52:22.696Z,1000.24
2022-11-19T11:54:55.749Z,1000.25
2022-11-19T11:57:28.634Z,1000.25
2022-11-19T12:00:01.357Z,1000.27
2022-11-19T12:02:34.696Z,1000.30
2022-11-19T12:05:07.533Z,1000.31
2022-11-19T12:07:40.496Z,1000.32
2022-11-19T12:10:13.481Z,1000.32
2022-11-19T12:12:46.681Z,1000.36
2022-11-19T12:15:19.655Z,1000.37
2022-11-19T12:17:52.653Z,1000.35
2022-11-19T12:20:25.704Z,1000.35
2022-11-19T12:22:58.675Z,1000.35
2022-11-19T12:25:31.759Z,1000.35
2022-11-19T12:28:04.773Z,1000.37
2022-11-19T12:30:37.454Z,1000.38
2022-11-19T12:33:10.720Z,1000.39
2022-11-19T12:35:43.810Z,1000.41
2022-11-19T12:38:16.694Z,1000.43
2022-11-19T12:40:49.613Z,1000.43
2022-11-19T12:43:22.693Z,1000.41
2022-11-19T12:45:55.745Z,1000.40
2022-11-19T12:48:28.772Z,1000.39
2022-11-19T12:51:01.756Z,1000.37
2022-11-19T12:53:34.756Z,1000.37
2022-11-19T12:56:07.770Z,1000.36
2022-11-19T12:58:40.715Z,1000.36
2022-11-19T13:01:13.868Z,1000.37
2022-11-19T13:03:46.779Z,1000.37
2022-11-19T13:06:19.731Z,1000.37
2022-11-19T13:08:52.827Z,1000.38
2022-11-19T13:11:25.871Z,1000.36
2022-11-19T13:13:58.760Z,1000.37
2022-11-19T13:16:31.863Z,1000.37
2022-11-19T13:19:04.639Z,1000.38
2022-11-19T13:21:40.721Z,1000.39
2022-11-19T13:24:13.913Z,1000.40
2022-11-19T13:26:46.759Z,1000.43
2022-11-19T13:29:20.073Z,1000.45
2022-11-19T13:31:52.778Z,1000.45
2022-11-19T13:34:25.857Z,1000.46
2022-11-19T13:36:58.661Z,1000.46
2022-11-19T13:39:31.911Z,1000.45
2022-11-19T13:42:04.826Z,1000.47
2022-11-19T13:44:37.799Z,1000.48
2022-11-19T13:47:10.791Z,1000.48
2022-11-19T13:49:43.799Z,1000.46
2022-11-19T13:52:16.518Z,1000.46
2022-11-19T13:54:49.825Z,1000.46
2022-11-19T13:57:22.821Z,1000.47
2022-11-19T13:59:55.822Z,1000.47
2022-11-19T14:02:28.835Z,1000.48
2022-11-19T14:05:01.745Z,1000.48
2022-11-19T14:07:34.741Z,1000.50
2022-11-19T14:10:07.588Z,1000.52
2022-11-19T14:12:40.630Z,1000.55
2022-11-19T14:15:13.724Z,1000.56
2022-11-19T14:17:46.554Z,1000.58
2022-11-19T14:20:19.712Z,1000.59
2022-11-19T14:22:52.731Z,1000.61
2022-11-19T14:25:25.724Z,1000.62
2022-11-19T14:27:58.698Z,1000.63
2022-11-19T14:30:31.705Z,1000.64
2022-11-19T14:33:04.676Z,1000.66
2022-11-19T14:35:37.862Z,1000.70
2022-11-19T14:38:10.979Z,1000.71
2022-11-19T14:40:44.208Z,1000.72
2022-11-19T14:43:16.592Z,1000.72
2022-11-19T14:45:49.718Z,1000.74
2022-11-19T14:48:22.721Z,1000.74
2022-11-19T14:50:56.002Z,1000.75
2022-11-19T14:53:28.927Z,1000.75
2022-11-19T14:56:01.625Z,1000.78
2022-11-19T14:58:34.615Z,1000.81
2022-11-19T15:01:07.967Z,1000.82
2022-11-19T15:03:40.987Z,1000.83
2022-11-19T15:06:13.615Z,1000.85
2022-11-19T15:08:46.788Z,1000.85
2022-11-19T15:11:19.643Z,1000.85
2022-11-19T15:13:52.761Z,1000.84
2022-11-19T15:16:28.995Z,1000.83
2022-11-19T15:19:02.055Z,1000.82
2022-11-19T15:21:34.967Z,1000.83
2022-11-19T15:24:07.659Z,1000.84
2022-11-19T15:26:41.079Z,1000.85
2022-11-19T15:29:13.966Z,1000.85
2022-11-19T15:31:46.987Z,1000.85
2022-11-19T15:34:19.731Z,1000.88
2022-11-19T15:36:52.665Z,1000.89
2022-11-19T15:39:26.037Z,1000.91
2022-11-19T15:41:59.103Z,1000.93
2022-11-19T15:44:32.050Z,1000.95
2022-11-19T15:47:04.729Z,1000.94
2022-11-19T15:49:37.988Z,1000.95
2022-11-19T15:52:17.343Z,1000.93
2022-11-19T15:54:44.034Z,1000.93
2022-11-19T15:57:16.779Z,1000.94
2022-11-19T15:59:50.100Z,1000.95
2022-11-19T16:02:22.861Z,1000.95
2022-11-19T16:04:55.774Z,1000.94
2022-11-19T16:07:28.927Z,1000.95
2022-11-19T16:10:01.990Z,1000.96
2022-11-19T16:12:37.737Z,1000.99
2022-11-19T16:15:11.104Z,1001.01
2022-11-19T16:17:44.550Z,1001.02
2022-11-19T16:20:16.787Z,1001.02
2022-11-19T16:22:49.905Z,1001.01
2022-11-19T16:25:23.131Z,1001.03
2022-11-19T16:27:56.176Z,1001.05
2022-11-19T16:30:29.039Z,1001.05
2022-11-19T16:33:15.977Z,1001.07
2022-11-19T16:35:52.963Z,1001.08
2022-11-19T16:38:22.165Z,1001.10
2022-11-19T16:40:54.928Z,1001.12
2022-11-19T16:43:27.910Z,1001.15
2022-11-19T16:46:00.918Z,1001.17
2022-11-19T16:48:34.092Z,1001.18
2022-11-19T16:51:06.965Z,1001.19
2022-11-19T16:53:39.802Z,1001.21
2022-11-19T16:56:16.900Z,1001.24
2022-11-19T16:58:45.821Z,1001.24
2022-11-19T17:01:18.918Z,1001.26
2022-11-19T17:03:51.985Z,1001.27
2022-11-19T17:06:24.959Z,1001.30
2022-11-19T17:08:57.913Z,1001.32
2022-11-19T17:11:30.971Z,1001.32
2022-11-19T17:14:03.853Z,1001.33
2022-11-19T17:16:36.810Z,1001.33
2022-11-19T17:19:09.844Z,1001.36
2022-11-19T17:21:42.861Z,1001.37
2022-11-19T17:24:15.837Z,1001.38
2022-11-19T17:26:49.032Z,1001.40
2022-11-19T17:29:21.910Z,1001.41
2022-11-19T17:31:54.902Z,1001.43
2022-11-19T17:34:27.999Z,1001.43
2022-11-19T17:37:01.157Z,1001.43
2022-11-19T17:39:34.047Z,1001.44
2022-11-19T17:42:07.039Z,1001.44
2022-11-19T17:44:39.891Z,1001.46
2022-11-19T17:47:21.934Z,1001.48
2022-11-19T17:49:46.153Z,1001.50
2022-11-19T17:52:21.398Z,1001.52
2022-11-19T17:54:52.036Z,1001.53
2022-11-19T17:57:25.061Z,1001.56
2022-11-19T17:59:58.297Z,1001.58
2022-11-19T18:02:31.182Z,1001.59
2022-11-19T18:05:04.285Z,1001.59
2022-11-19T18:07:37.352Z,1001.60
2022-11-19T18:10:10.306Z,1001.61
2022-11-19T18:12:43.044Z,1001.63
2022-11-19T18:15:15.928Z,1001.64
2022-11-19T18:17:48.925Z,1001.65
2022-11-19T18:20:21.961Z,1001.68
2022-11-19T18:22:54.911Z,1001.71
2022-11-19T18:25:28.134Z,1001.74
2022-11-19T18:28:00.951Z,1001.75
2022-11-19T18:30:33.991Z,1001.77
2022-11-19T18:33:07.102Z,1001.79
2022-11-19T18:35:39.967Z,1001.79
2022-11-19T18:38:13.240Z,1001.79
2022-11-19T18:40:45.945Z,1001.80
2022-11-19T18:43:19.121Z,1001.80
2022-11-19T18:45:52.379Z,1001.81
2022-11-19T18:48:24.951Z,1001.82
2022-11-19T18:50:58.025Z,1001.82
2022-11-19T18:53:31.358Z,1001.82
2022-11-19T18:56:03.976Z,1001.82
2022-11-19T18:58:37.084Z,1001.82
2022-11-19T19:01:10.007Z,1001.83
2022-11-19T19:03:43.093Z,1001.84
2022-11-19T19:06:15.973Z,1001.85
2022-11-19T19:08:49.148Z,1001.86
2022-11-19T19:11:22.044Z,1001.88
2022-11-19T19:13:55.364Z,1001.90
2022-11-19T19:16:28.102Z,1001.91
2022-11-19T19:19:01.280Z,1001.94
2022-11-19T19:21:34.402Z,1001.97
2022-11-19T19:24:07.094Z,1001.97
2022-11-19T19:26:40.191Z,1001.98
2022-11-19T19:29:13.010Z,1001.97
2022-11-19T19:31:46.127Z,1001.98
2022-11-19T19:34:19.008Z,1002.00
2022-11-19T19:36:53.623Z,1002.03
2022-11-19T19:39:25.614Z,1002.03
2022-11-19T19:41:58.321Z,1002.02
2022-11-19T19:44:31.187Z,1002.02
2022-11-19T19:47:18.156Z,1002.03
2022-11-19T19:49:51.103Z,1002.05
2022-11-19T19:52:24.039Z,1002.05
2022-11-19T19:55:03.176Z,1002.07
2022-11-19T19:57:36.123Z,1002.07
2022-11-19T20:00:09.044Z,1002.07
2022-11-19T20:02:42.215Z,1002.08
2022-11-19T20:05:15.089Z,1002.08
2022-11-19T20:07:48.177Z,1002.09
2022-11-19T20:10:21.219Z,1002.10
2022-11-19T20:12:54.232Z,1002.11
2022-11-19T20:15:27.155Z,1002.12
2022-11-19T20:18:00.541Z,1002.13
2022-11-19T20:20:34.080Z,1002.14
2022-11-19T20:23:07.197Z,1002.16
2022-11-19T20:25:40.454Z,1002.17
2022-11-19T20:28:13.216Z,1002.17
2022-11-19T20:30:46.102Z,1002.19
2022-11-19T20:33:19.515Z,1002.19
2022-11-19T20:35:52.194Z,1002.20
2022-11-19T20:38:39.038Z,1002.20
2022-11-19T20:41:12.106Z,1002.20
2022-11-19T20:43:51.417Z,1002.21
2022-11-19T20:46:18.450Z,1002.21
2022-11-19T20:48:51.560Z,1002.21
2022-11-19T20:51:24.523Z,1002.21
2022-11-19T20:53:57.462Z,1002.24
2022-11-19T20:56:30.531Z,1002.26
2022-11-19T20:59:03.557Z,1002.28
2022-11-19T21:01:37.539Z,1002.28
2022-11-19T21:04:10.456Z,1002.31
2022-11-19T21:06:43.427Z,1002.32
2022-11-19T21:09:16.452Z,1002.35
2022-11-19T21:11:49.215Z,1002.36
2022-11-19T21:14:22.431Z,1002.38
2022-11-19T21:16:55.403Z,1002.41
2022-11-19T21:19:30.417Z,1002.42
2022-11-19T21:22:03.227Z,1002.43
2022-11-19T21:24:36.607Z,1002.41
2022-11-19T21:27:09.358Z,1002.41
2022-11-19T21:29:42.208Z,1002.38
2022-11-19T21:32:15.502Z,1002.36
2022-11-19T21:34:48.233Z,1002.35
2022-11-19T21:37:21.246Z,1002.33
2022-11-19T21:39:54.348Z,1002.29
2022-11-19T21:42:27.361Z,1002.27
2022-11-19T21:45:00.326Z,1002.25
2022-11-19T21:47:33.445Z,1002.24
2022-11-19T21:50:06.364Z,1002.25
2022-11-19T21:52:39.398Z,1002.25
2022-11-19T21:55:12.221Z,1002.25
2022-11-19T21:57:45.345Z,1002.26
2022-11-19T22:00:18.251Z,1002.27
2022-11-19T22:02:51.570Z,1002.28
2022-11-19T22:05:24.372Z,1002.28
2022-11-19T22:07:57.582Z,1002.27
2022-11-19T22:10:30.320Z,1002.27
2022-11-19T22:13:03.543Z,1002.26
2022-11-19T22:15:36.693Z,1002.25
2022-11-19T22:18:10.541Z,1002.26
2022-11-19T22:20:43.413Z,1002.25
2022-11-19T22:23:20.111Z,1002.26
2022-11-19T22:25:49.605Z,1002.27
2022-11-19T22:28:28.178Z,1002.26
2022-11-19T22:31:01.313Z,1002.27
2022-11-19T22:33:34.694Z,1002.26
2022-11-19T22:36:10.063Z,1002.24
2022-11-19T22:38:40.298Z,1002.24
2022-11-19T22:41:13.335Z,1002.22
2022-11-19T22:43:46.436Z,1002.20
2022-11-19T22:46:19.411Z,1002.19
2022-11-19T22:48:52.459Z,1002.18
2022-11-19T22:51:25.663Z,1002.19
2022-11-19T22:54:00.515Z,1002.18
2022-11-19T22:56:33.663Z,1002.18
2022-11-19T22:59:06.657Z,1002.18
2022-11-19T23:01:39.651Z,1002.18
2022-11-19T23:04:12.623Z,1002.19
2022-11-19T23:06:45.669Z,1002.18
2022-11-19T23:09:19.075Z,1002.18
2022-11-19T23:11:51.624Z,1002.18
2022-11-19T23:14:24.725Z,1002.16
2022-11-19T23:16:57.670Z,1002.15
2022-11-19T23:19:30.696Z,1002.13
2022-11-19T23:22:03.706Z,1002.13
2022-11-19T23:24:36.504Z,1002.13
2022-11-19T23:27:09.760Z,1002.12
2022-11-19T23:29:42.695Z,1002.11
2022-11-19T23:32:15.668Z,1002.11
2022-11-19T23:34:48.684Z,1002.11
2022-11-19T23:37:21.777Z,1002.12
2022-11-19T23:39:54.763Z,1002.14
2022-11-19T23:42:27.772Z,1002.15
2022-11-19T23:45:00.783Z,1002.14
2022-11-19T23:47:33.792Z,1002.13
2022-11-19T23:50:06.800Z,1002.13
2022-11-19T23:52:39.781Z,1002.12
2022-11-19T23:55:12.662Z,1002.10
2022-11-19T23:57:45.718Z,1002.07
